Terminal Aerodrome Forecast
Issued by NWS

Home | Current Version | Previous Version | Text Only | Print | Product List | Glossary On
Versions: 1 2 3 4 5 6 7 8 9 10 11 12 13 14 15
000
FTUS43 KICT 222330
TAFCNU
TAF
KCNU 222330Z 2300/2324 16007KT P6SM SCT040
     FM231100 36011KT P6SM VCSH BKN035
     FM231500 01016G24KT P6SM VCSH BKN060
     FM231800 01016G24KT P6SM SCT140=

USA.gov is the U.S. government's official web portal to all federal, state and local government web resources and services.